createdAt,value
2023-03-23T00:00:42.879Z,24.43
2023-03-23T00:04:43.208Z,24.42
2023-03-23T00:08:43.587Z,24.44
2023-03-23T00:28:44.907Z,24.42
2023-03-23T00:32:44.180Z,24.39
2023-03-23T01:12:45.104Z,24.36
2023-03-23T01:28:45.388Z,24.36
2023-03-23T01:32:45.433Z,24.35
2023-03-23T02:56:46.891Z,24.44
2023-03-23T04:12:49.370Z,24.49
2023-03-23T04:16:54.541Z,24.49
2023-03-23T04:20:50.733Z,24.49
2023-03-23T04:24:56.520Z,24.49
2023-03-23T04:28:50.840Z,24.49
2023-03-23T04:36:57.033Z,24.49
2023-03-23T04:40:51.431Z,24.48
2023-03-23T05:04:51.197Z,24.48
2023-03-23T05:12:51.320Z,24.48
2023-03-23T05:16:51.392Z,24.48
2023-03-23T05:20:51.446Z,24.49
2023-03-23T05:40:52.023Z,24.48
2023-03-23T05:44:52.313Z,24.48
2023-03-23T05:48:53.034Z,24.43
2023-03-23T05:52:52.941Z,24.42
2023-03-23T05:56:53.244Z,24.44
2023-03-23T06:00:53.558Z,24.44
2023-03-23T06:04:53.877Z,24.43
2023-03-23T06:08:54.213Z,24.42
2023-03-23T06:12:54.525Z,24.44
2023-03-23T06:16:54.860Z,24.46
2023-03-23T06:20:54.934Z,24.44
2023-03-23T06:24:55.122Z,24.43
2023-03-23T06:28:55.043Z,24.44
2023-03-23T06:32:56.037Z,24.44
2023-03-23T06:36:55.185Z,24.42
2023-03-23T06:40:55.248Z,24.43
2023-03-23T06:44:55.565Z,24.44
2023-03-23T06:48:55.406Z,24.44
2023-03-23T06:52:55.557Z,24.43
2023-03-23T06:56:55.525Z,24.44
2023-03-23T07:00:55.594Z,24.46
2023-03-23T07:04:56.071Z,24.44
2023-03-23T07:08:55.730Z,24.44
2023-03-23T07:12:55.793Z,24.44
2023-03-23T07:16:55.868Z,24.48
2023-03-23T07:20:56.062Z,24.49
2023-03-23T07:24:56.132Z,24.52
2023-03-23T07:28:56.847Z,24.50
2023-03-23T07:56:56.733Z,24.57
2023-03-23T08:08:57.338Z,24.59
2023-03-23T08:12:57.610Z,24.56
2023-03-23T08:16:57.879Z,24.57
2023-03-23T08:20:58.151Z,24.57
2023-03-23T08:24:58.434Z,24.59
2023-03-23T08:28:58.709Z,24.57
2023-03-23T08:32:58.999Z,24.60
2023-03-23T08:36:59.254Z,24.60
2023-03-23T08:40:59.522Z,24.63
2023-03-23T08:44:59.807Z,24.63
2023-03-23T08:49:00.089Z,24.63
2023-03-23T08:53:00.326Z,24.66
2023-03-23T08:57:00.620Z,24.66
2023-03-23T09:01:00.956Z,24.66
2023-03-23T09:05:01.155Z,24.67
2023-03-23T09:09:01.415Z,24.66
2023-03-23T09:13:01.671Z,24.67
2023-03-23T09:17:01.941Z,24.70
2023-03-23T09:21:02.199Z,24.70
2023-03-23T09:25:02.458Z,24.71
2023-03-23T09:29:04.120Z,24.74
2023-03-23T09:33:02.954Z,24.73
2023-03-23T09:37:03.179Z,24.76
2023-03-23T09:41:03.429Z,24.76
2023-03-23T09:45:03.692Z,24.77
2023-03-23T09:49:03.900Z,24.80
2023-03-23T09:53:04.150Z,24.80
2023-03-23T09:57:04.371Z,24.78
2023-03-23T10:01:04.620Z,24.83
2023-03-23T10:05:04.837Z,24.83
2023-03-23T10:09:05.056Z,24.86
2023-03-23T10:13:05.332Z,24.84
2023-03-23T10:17:05.565Z,24.84
2023-03-23T10:21:05.710Z,24.87
2023-03-23T10:25:05.945Z,24.87
2023-03-23T10:29:06.142Z,24.88
2023-03-23T10:33:06.313Z,24.88
2023-03-23T10:37:06.509Z,24.88
2023-03-23T10:41:06.704Z,24.90
2023-03-23T10:45:06.912Z,24.88
2023-03-23T10:49:07.077Z,24.88
2023-03-23T10:53:07.274Z,24.90
2023-03-23T10:57:07.483Z,24.86
2023-03-23T11:01:07.736Z,24.90
2023-03-23T11:05:09.618Z,24.90
2023-03-23T11:09:08.011Z,24.88
2023-03-23T11:13:08.000Z,24.88
2023-03-23T11:17:15.711Z,24.88
2023-03-23T11:21:09.129Z,24.91
2023-03-23T11:25:08.182Z,24.93
2023-03-23T11:29:08.230Z,24.95
2023-03-23T11:33:08.302Z,24.97
2023-03-23T11:37:08.567Z,24.97
2023-03-23T11:41:08.737Z,25.06
2023-03-23T11:45:08.849Z,25.06
2023-03-23T11:49:19.211Z,25.10
2023-03-23T11:53:10.067Z,25.11
2023-03-23T11:57:09.119Z,25.15
2023-03-23T12:01:09.170Z,25.14
2023-03-23T12:05:09.229Z,25.18
2023-03-23T12:09:09.297Z,25.19
2023-03-23T12:13:11.892Z,25.24
2023-03-23T12:17:09.501Z,25.34
2023-03-23T12:21:09.575Z,25.41
2023-03-23T12:25:10.629Z,25.46
2023-03-23T12:29:09.663Z,25.59
2023-03-23T12:33:09.714Z,25.68
2023-03-23T12:37:10.176Z,25.79
2023-03-23T12:41:09.840Z,25.87
2023-03-23T12:45:09.850Z,26.01
2023-03-23T12:49:09.876Z,26.12
2023-03-23T12:53:09.881Z,26.21
2023-03-23T12:57:09.885Z,26.30
2023-03-23T13:01:10.181Z,26.27
2023-03-23T13:05:09.919Z,26.31
2023-03-23T13:09:09.924Z,26.41
2023-03-23T13:13:09.916Z,26.35
2023-03-23T13:17:10.939Z,26.28
2023-03-23T13:21:09.950Z,26.26
2023-03-23T13:25:09.954Z,26.27
2023-03-23T13:29:10.064Z,26.19
2023-03-23T13:33:10.243Z,26.21
2023-03-23T13:37:10.707Z,26.27
2023-03-23T13:41:10.664Z,26.30
2023-03-23T13:45:10.780Z,26.34
2023-03-23T13:49:16.141Z,26.37
2023-03-23T13:53:11.960Z,26.47
2023-03-23T13:57:10.870Z,26.52
2023-03-23T14:01:10.836Z,26.55
2023-03-23T14:05:10.829Z,26.61
2023-03-23T14:09:10.825Z,26.68
2023-03-23T14:13:10.802Z,26.72
2023-03-23T14:17:10.765Z,26.81
2023-03-23T14:21:11.860Z,26.89
2023-03-23T14:25:10.922Z,26.98
2023-03-23T14:29:11.070Z,27.06
2023-03-23T14:33:11.075Z,27.10
2023-03-23T14:37:11.004Z,27.13
2023-03-23T14:41:10.979Z,27.09
2023-03-23T14:45:10.947Z,27.14
2023-03-23T14:49:10.901Z,27.16
2023-03-23T14:53:10.850Z,27.05
2023-03-23T14:57:10.830Z,27.01
2023-03-23T15:01:10.847Z,26.95
2023-03-23T15:05:10.753Z,26.92
2023-03-23T15:09:10.796Z,26.89
2023-03-23T15:13:10.788Z,26.83
2023-03-23T15:17:10.888Z,26.78
2023-03-23T15:21:10.912Z,26.70
2023-03-23T15:25:11.053Z,26.64
2023-03-23T15:29:11.246Z,26.58
2023-03-23T15:33:11.028Z,26.54
2023-03-23T15:37:18.518Z,26.47
2023-03-23T15:41:12.151Z,26.43
2023-03-23T15:45:11.174Z,26.38
2023-03-23T15:49:11.163Z,26.33
2023-03-23T15:53:11.254Z,26.27
2023-03-23T15:57:11.213Z,26.20
2023-03-23T16:01:11.421Z,26.13
2023-03-23T16:05:11.646Z,26.10
2023-03-23T16:09:11.782Z,26.06
2023-03-23T16:13:12.011Z,26.00
2023-03-23T16:17:12.257Z,25.96
2023-03-23T16:21:12.519Z,25.92
2023-03-23T16:25:12.854Z,25.87
2023-03-23T16:29:20.445Z,25.86
2023-03-23T16:33:13.904Z,25.83
2023-03-23T16:37:12.812Z,25.80
2023-03-23T16:41:12.844Z,25.76
2023-03-23T16:45:12.859Z,25.73
2023-03-23T16:49:12.846Z,25.70
2023-03-23T16:53:12.844Z,25.68
2023-03-23T16:57:12.985Z,25.64
2023-03-23T17:01:12.886Z,25.64
2023-03-23T17:05:12.909Z,25.58
2023-03-23T17:09:12.889Z,25.56
2023-03-23T17:13:12.906Z,25.53
2023-03-23T17:17:12.938Z,25.52
2023-03-23T17:21:12.974Z,25.48
2023-03-23T17:25:13.058Z,25.49
2023-03-23T17:29:13.050Z,25.44
2023-03-23T17:33:13.114Z,25.44
2023-03-23T17:37:13.118Z,25.41
2023-03-23T17:41:13.172Z,25.39
2023-03-23T17:45:13.268Z,25.37
2023-03-23T17:49:13.323Z,25.37
2023-03-23T17:53:13.378Z,25.35
2023-03-23T17:57:13.451Z,25.31
2023-03-23T18:01:13.573Z,25.29
2023-03-23T18:05:13.632Z,25.29
2023-03-23T18:09:13.717Z,25.28
2023-03-23T18:13:13.825Z,25.28
2023-03-23T18:17:14.076Z,25.27
2023-03-23T18:21:14.041Z,25.22
2023-03-23T18:25:14.149Z,25.24
2023-03-23T18:29:14.276Z,25.24
2023-03-23T18:33:14.811Z,25.19
2023-03-23T18:37:14.522Z,25.17
2023-03-23T18:41:14.719Z,25.17
2023-03-23T18:45:14.794Z,25.18
2023-03-23T18:49:14.908Z,25.14
2023-03-23T18:53:15.024Z,25.14
2023-03-23T18:57:15.187Z,25.13
2023-03-23T19:01:15.337Z,25.11
2023-03-23T19:05:15.487Z,25.08
2023-03-23T19:09:15.644Z,25.08
2023-03-23T19:13:15.820Z,25.06
2023-03-23T19:17:16.059Z,25.06
2023-03-23T19:21:19.744Z,25.04
2023-03-23T19:25:17.228Z,25.01
2023-03-23T19:29:25.331Z,25.01
2023-03-23T19:33:17.335Z,24.98
2023-03-23T19:37:17.471Z,24.98
2023-03-23T19:41:18.984Z,24.95
2023-03-23T19:45:16.591Z,24.94
2023-03-23T19:57:16.748Z,24.93
2023-03-23T20:01:16.790Z,24.91
2023-03-23T20:05:16.898Z,24.90
2023-03-23T20:09:18.207Z,24.88
2023-03-23T20:13:17.963Z,24.90
2023-03-23T20:33:18.165Z,24.84
2023-03-23T20:37:18.375Z,24.86
2023-03-23T20:41:18.560Z,24.83
2023-03-23T20:49:18.977Z,24.78
2023-03-23T21:33:21.389Z,24.71
2023-03-23T21:37:21.600Z,24.70
2023-03-23T21:41:22.370Z,24.69
2023-03-23T21:45:22.087Z,24.70
2023-03-23T21:49:22.356Z,24.67
2023-03-23T21:53:22.610Z,24.67
2023-03-23T21:57:22.790Z,24.66
2023-03-23T22:01:23.088Z,24.67
2023-03-23T22:05:23.300Z,24.66
2023-03-23T22:09:23.560Z,24.64
2023-03-23T22:13:23.881Z,24.63
2023-03-23T22:17:24.071Z,24.64
2023-03-23T22:21:24.311Z,24.63
2023-03-23T22:25:24.568Z,24.64
2023-03-23T22:29:24.843Z,24.60
2023-03-23T22:33:25.115Z,24.62
2023-03-23T22:37:25.370Z,24.60
2023-03-23T22:41:25.641Z,24.62
2023-03-23T22:45:26.092Z,24.60
2023-03-23T23:25:28.770Z,24.53
2023-03-23T23:29:29.057Z,24.53
2023-03-23T23:33:29.365Z,24.52
2023-03-23T23:37:29.921Z,24.50
2023-03-23T23:41:30.436Z,24.50
2023-03-23T23:45:30.269Z,24.49
2023-03-23T23:49:30.580Z,24.48
2023-03-23T23:53:30.893Z,24.49
2023-03-23T23:57:31.192Z,24.50
